地図

経路データ

SID SEASON NUMBER BASIN SUBBASIN NAME ISO_TIME NATURE LAT LON WMO_WIND WMO_PRES WMO_AGENCY TRACK_TYPE DIST2LAND LANDFALL IFLAG USA_AGENCY USA_ATCF_ID USA_LAT USA_LON USA_RECORD USA_STATUS USA_WIND USA_PRES USA_SSHS USA_R34_NE USA_R34_SE USA_R34_SW USA_R34_NW USA_R50_NE USA_R50_SE USA_R50_SW USA_R50_NW USA_R64_NE USA_R64_SE USA_R64_SW USA_R64_NW USA_POCI USA_ROCI USA_RMW USA_EYE TOKYO_LAT TOKYO_LON TOKYO_GRADE TOKYO_WIND TOKYO_PRES TOKYO_R50_DIR TOKYO_R50_LONG TOKYO_R50_SHORT TOKYO_R30_DIR TOKYO_R30_LONG TOKYO_R30_SHORT TOKYO_LAND CMA_LAT CMA_LON CMA_CAT CMA_WIND CMA_PRES HKO_LAT HKO_LON HKO_CAT HKO_WIND HKO_PRES NEWDELHI_LAT NEWDELHI_LON NEWDELHI_GRADE NEWDELHI_WIND NEWDELHI_PRES NEWDELHI_CI NEWDELHI_DP NEWDELHI_POCI REUNION_LAT REUNION_LON REUNION_TYPE REUNION_WIND REUNION_PRES REUNION_TNUM REUNION_CI REUNION_RMW REUNION_R34_NE REUNION_R34_SE REUNION_R34_SW REUNION_R34_NW REUNION_R50_NE REUNION_R50_SE REUNION_R50_SW REUNION_R50_NW REUNION_R64_NE REUNION_R64_SE REUNION_R64_SW REUNION_R64_NW BOM_LAT BOM_LON BOM_TYPE BOM_WIND BOM_PRES BOM_TNUM BOM_CI BOM_RMW BOM_R34_NE BOM_R34_SE BOM_R34_SW BOM_R34_NW BOM_R50_NE BOM_R50_SE BOM_R50_SW BOM_R50_NW BOM_R64_NE BOM_R64_SE BOM_R64_SW BOM_R64_NW BOM_ROCI BOM_POCI BOM_EYE BOM_POS_METHOD BOM_PRES_METHOD NADI_LAT NADI_LON NADI_CAT NADI_WIND NADI_PRES WELLINGTON_LAT WELLINGTON_LON WELLINGTON_WIND WELLINGTON_PRES DS824_LAT DS824_LON DS824_STAGE DS824_WIND DS824_PRES TD9636_LAT TD9636_LON TD9636_STAGE TD9636_WIND TD9636_PRES TD9635_LAT TD9635_LON TD9635_WIND TD9635_PRES TD9635_ROCI NEUMANN_LAT NEUMANN_LON NEUMANN_CLASS NEUMANN_WIND NEUMANN_PRES MLC_LAT MLC_LON MLC_CLASS MLC_WIND MLC_PRES USA_GUST BOM_GUST BOM_GUST_PER REUNION_GUST REUNION_GUST_PER USA_SEAHGT USA_SEARAD_NE USA_SEARAD_SE USA_SEARAD_SW USA_SEARAD_NW STORM_SPEED STORM_DIR
1965049S13086 1965 20 SI MM NOT_NAMED 1965-02-18 06:00:00 TS -12.7000 86.0000 main 1881 1881 O________OO___ jtwc_sh SH271965 -12.7000 86.0000 -1 -12.7000 86.0000 TC 25 -12.7000 86.0000 7 8 262
1965049S13086 1965 20 SI MM NOT_NAMED 1965-02-18 09:00:00 TS -12.7523 85.5987 main 1922 1922 P________PP___ SH271965 -12.7376 85.5925 -1 -12.7376 85.5925 TC 25 -12.7818 85.6112 7 8 261
1965049S13086 1965 20 SI MM NOT_NAMED 1965-02-18 12:00:00 TS -12.8202 85.2093 main 1956 1956 O________OP___ jtwc_sh SH271965 -12.8000 85.2000 -1 -12.8000 85.2000 TC 25 -12.8606 85.2278 7 8 258
1965049S13086 1965 20 SI MM NOT_NAMED 1965-02-18 15:00:00 TS -12.9113 84.8419 main 1997 1997 P________PP___ SH271965 -12.9000 84.8350 -1 -12.9000 84.8350 TC 30 -12.9341 84.8555 7 7 255
1965049S13086 1965 20 SI MM NOT_NAMED 1965-02-18 18:00:00 TS -13.0000 84.5000 main 2029 2029 O________OO___ jtwc_sh SH271965 -13.0000 84.5000 -1 -13.0000 84.5000 TC 35 -13.0000 84.5000 2 7 257
1965049S13086 1965 20 SI MM NOT_NAMED 1965-02-18 21:00:00 TS -13.0528 84.1881 main 2062 2062 P________PP___ SH271965 -13.0499 84.1999 -1 -13.0499 84.1999 TC 30 -13.0585 84.1644 2 6 260
1965049S13086 1965 20 SI MM NOT_NAMED 1965-02-19 00:00:00 TS -13.1066 83.8807 main 2088 2088 O________OP___ jtwc_sh SH271965 -13.1000 83.9000 -1 -13.1000 83.9000 TC 25 -13.1197 83.8421 2 6 258
1965049S13086 1965 20 SI MM NOT_NAMED 1965-02-19 03:00:00 TS -13.1887 83.5462 main 2130 2130 P________PP___ SH271965 -13.1850 83.5575 -1 -13.1850 83.5575 TC 25 -13.1960 83.5238 2 7 254
1965049S13086 1965 20 SI MM NOT_NAMED 1965-02-19 06:00:00 TS -13.3000 83.2000 main 2163 2163 O________OO___ jtwc_sh SH271965 -13.3000 83.2000 -1 -13.3000 83.2000 TC 25 -13.3000 83.2000 1 7 250
1965049S13086 1965 20 SI MM NOT_NAMED 1965-02-19 09:00:00 TS -13.4360 82.8510 main 2177 2175 P________PP___ SH271965 -13.4350 82.8500 -1 -13.4350 82.8500 TC 25 -13.4381 82.8531 1 7 246
1965049S13086 1965 20 SI MM NOT_NAMED 1965-02-19 12:00:00 TS -13.6016 82.5000 main 2194 2193 O________OP___ jtwc_sh SH271965 -13.6000 82.5000 -1 -13.6000 82.5000 TC 25 -13.6049 82.5000 1 8 242
1965049S13086 1965 20 SI MM NOT_NAMED 1965-02-19 15:00:00 TS -13.7931 82.1489 main 2213 2213 P________PP___ SH271965 -13.7925 82.1500 -1 -13.7925 82.1500 TC 25 -13.7943 82.1468 1 8 240
1965049S13086 1965 20 SI MM NOT_NAMED 1965-02-19 18:00:00 TS -14.0000 81.8000 main 2233 2232 O________OO___ jtwc_sh SH271965 -14.0000 81.8000 -1 -14.0000 81.8000 TC 25 -14.0000 81.8000 1 8 239
1965049S13086 1965 20 SI MM NOT_NAMED 1965-02-19 21:00:00 TS -14.1999 81.4455 main 2253 2253 P________PP___ SH271965 -14.1925 81.4424 -1 -14.1925 81.4424 TC 25 -14.2146 81.4516 1 8 238
1965049S13086 1965 20 SI MM NOT_NAMED 1965-02-20 00:00:00 TS -14.4142 81.1042 main 2274 2274 O________OP___ jtwc_sh SH271965 -14.4000 81.1000 -1 -14.4000 81.1000 TC 25 -14.4425 81.1126 1 8 234
1965049S13086 1965 20 SI MM NOT_NAMED 1965-02-20 03:00:00 TS -14.6580 80.7874 main 2307 2307 P________PP___ SH271965 -14.6500 80.7850 -1 -14.6500 80.7850 TC 25 -14.6741 80.7922 1 8 230
1965049S13086 1965 20 SI MM NOT_NAMED 1965-02-20 06:00:00 TS -14.9000 80.5000 main 2330 2330 O________OO___ jtwc_sh SH271965 -14.9000 80.5000 -1 -14.9000 80.5000 TC 25 -14.9000 80.5000 1 7 230
1965049S13086 1965 20 SI MM NOT_NAMED 1965-02-20 09:00:00 TS -15.1032 80.2372 main 2353 2353 P________PP___ SH271965 -15.1075 80.2349 -1 -15.1075 80.2349 TC 25 -15.0948 80.2418 1 6 230
1965049S13086 1965 20 SI MM NOT_NAMED 1965-02-20 12:00:00 TS -15.2949 80.0040 main 2375 2375 O________OP___ jtwc_sh SH271965 -15.3000 80.0000 -1 -15.3000 80.0000 TC 25 -15.2847 80.0120 1 6 228
1965049S13086 1965 20 SI MM NOT_NAMED 1965-02-20 15:00:00 TS -15.4891 79.7954 main 2387 2360 P________PP___ SH271965 -15.4925 79.7924 -1 -15.4925 79.7924 TC 25 -15.4823 79.8012 1 6 224
1965049S13086 1965 20 SI MM NOT_NAMED 1965-02-20 18:00:00 TS -15.7000 79.6000 main 2360 2333 O________OO___ jtwc_sh SH271965 -15.7000 79.6000 -1 -15.7000 79.6000 TC 25 -15.7000 79.6000 1 6 220
1965049S13086 1965 20 SI MM NOT_NAMED 1965-02-20 21:00:00 TS -15.9389 79.4001 main 2333 2304 P________PP___ SH271965 -15.9350 79.3999 -1 -15.9350 79.3999 TC 25 -15.9467 79.4004 1 6 217
1965049S13086 1965 20 SI MM NOT_NAMED 1965-02-21 00:00:00 TS -16.2059 79.2002 main 2304 2275 O________OP___ jtwc_sh SH271965 -16.2000 79.2000 -1 -16.2000 79.2000 TC 25 -16.2177 79.2007 1 7 215
1965049S13086 1965 20 SI MM NOT_NAMED 1965-02-21 03:00:00 TS -16.4967 79.0003 main 2275 2246 P________PP___ SH271965 -16.4925 79.0001 -1 -16.4925 79.0001 TC 30 -16.5049 79.0006 1 7 213
1965049S13086 1965 20 SI MM NOT_NAMED 1965-02-21 06:00:00 TS -16.8000 78.8000 main 2246 O________OO___ jtwc_sh SH271965 -16.8000 78.8000 -1 -16.8000 78.8000 TC 35 -16.8000 78.8000 2 7 212

IBTrACS Databaseについて

本データベースは、米国NOAAが公開する1842年以降の世界の熱帯低気圧のベストトラックデータアーカイブInternational Best Track Archive for Climate Stewardship (IBTrACS)を、ウェブで閲覧しやすい形式に変換したものです。

最終更新日:2021-10-21